sensor_id;sensor_type;location;lat;lon;timestamp;P1;durP1;ratioP1;P2;durP2;ratioP2
74833;SDS011;63361;52.384;20.930;2023-06-24T00:01:17;9.10;;;3.40;;
74833;SDS011;63361;52.384;20.930;2023-06-24T00:03:42;7.67;;;3.33;;
74833;SDS011;63361;52.384;20.930;2023-06-24T00:06:12;6.97;;;3.23;;
74833;SDS011;63361;52.384;20.930;2023-06-24T00:08:43;5.93;;;3.25;;
74833;SDS011;63361;52.384;20.930;2023-06-24T00:11:08;6.88;;;3.60;;
74833;SDS011;63361;52.384;20.930;2023-06-24T00:13:34;6.30;;;3.10;;
74833;SDS011;63361;52.384;20.930;2023-06-24T00:15:59;7.33;;;3.10;;
74833;SDS011;63361;52.384;20.930;2023-06-24T00:18:24;6.90;;;3.30;;
74833;SDS011;63361;52.384;20.930;2023-06-24T00:20:49;6.53;;;3.33;;
74833;SDS011;63361;52.384;20.930;2023-06-24T00:23:15;6.23;;;3.50;;
74833;SDS011;63361;52.384;20.930;2023-06-24T00:25:42;6.07;;;3.60;;
74833;SDS011;63361;52.384;20.930;2023-06-24T00:28:07;8.03;;;4.07;;
74833;SDS011;63361;52.384;20.930;2023-06-24T00:30:32;8.37;;;4.10;;
74833;SDS011;63361;52.384;20.930;2023-06-24T00:32:58;8.40;;;3.97;;
74833;SDS011;63361;52.384;20.930;2023-06-24T00:35:23;7.18;;;3.92;;
74833;SDS011;63361;52.384;20.930;2023-06-24T00:37:48;9.27;;;4.30;;
74833;SDS011;63361;52.384;20.930;2023-06-24T00:40:14;8.30;;;4.33;;
74833;SDS011;63361;52.384;20.930;2023-06-24T00:42:41;7.35;;;4.20;;
74833;SDS011;63361;52.384;20.930;2023-06-24T00:45:07;6.80;;;3.83;;
74833;SDS011;63361;52.384;20.930;2023-06-24T00:47:32;8.40;;;3.72;;
74833;SDS011;63361;52.384;20.930;2023-06-24T00:49:58;7.87;;;4.03;;
74833;SDS011;63361;52.384;20.930;2023-06-24T00:52:23;6.50;;;3.67;;
74833;SDS011;63361;52.384;20.930;2023-06-24T00:54:48;6.60;;;3.33;;
74833;SDS011;63361;52.384;20.930;2023-06-24T00:57:14;9.03;;;3.97;;
74833;SDS011;63361;52.384;20.930;2023-06-24T00:59:39;8.57;;;3.77;;
74833;SDS011;63361;52.384;20.930;2023-06-24T01:02:05;7.38;;;3.67;;
74833;SDS011;63361;52.384;20.930;2023-06-24T01:04:31;6.50;;;3.67;;
74833;SDS011;63361;52.384;20.930;2023-06-24T01:06:58;7.13;;;4.13;;
74833;SDS011;63361;52.384;20.930;2023-06-24T01:09:23;8.73;;;3.90;;
74833;SDS011;63361;52.384;20.930;2023-06-24T01:11:49;8.57;;;4.03;;
74833;SDS011;63361;52.384;20.930;2023-06-24T01:14:15;9.33;;;4.07;;
74833;SDS011;63361;52.384;20.930;2023-06-24T01:16:49;7.20;;;3.87;;
74833;SDS011;63361;52.384;20.930;2023-06-24T01:21:46;8.00;;;4.40;;
74833;SDS011;63361;52.384;20.930;2023-06-24T01:24:29;7.38;;;4.22;;
74833;SDS011;63361;52.384;20.930;2023-06-24T01:32:15;8.77;;;4.33;;
74833;SDS011;63361;52.384;20.930;2023-06-24T01:34:45;8.32;;;4.20;;
74833;SDS011;63361;52.384;20.930;2023-06-24T01:37:19;8.20;;;4.18;;
74833;SDS011;63361;52.384;20.930;2023-06-24T01:42:35;7.72;;;3.80;;
74833;SDS011;63361;52.384;20.930;2023-06-24T01:45:02;7.33;;;3.93;;
74833;SDS011;63361;52.384;20.930;2023-06-24T01:47:27;8.35;;;4.45;;
74833;SDS011;63361;52.384;20.930;2023-06-24T01:49:54;8.38;;;4.60;;
74833;SDS011;63361;52.384;20.930;2023-06-24T01:52:21;8.53;;;4.20;;
74833;SDS011;63361;52.384;20.930;2023-06-24T01:54:48;10.60;;;4.93;;
74833;SDS011;63361;52.384;20.930;2023-06-24T01:57:14;7.82;;;4.40;;
74833;SDS011;63361;52.384;20.930;2023-06-24T01:59:41;7.20;;;4.03;;
74833;SDS011;63361;52.384;20.930;2023-06-24T02:02:07;7.80;;;4.28;;
74833;SDS011;63361;52.384;20.930;2023-06-24T02:04:33;8.73;;;4.27;;
74833;SDS011;63361;52.384;20.930;2023-06-24T02:07:00;9.07;;;4.68;;
74833;SDS011;63361;52.384;20.930;2023-06-24T02:09:26;9.87;;;5.13;;
74833;SDS011;63361;52.384;20.930;2023-06-24T02:11:53;8.80;;;4.72;;
74833;SDS011;63361;52.384;20.930;2023-06-24T02:14:19;8.07;;;4.47;;
74833;SDS011;63361;52.384;20.930;2023-06-24T02:16:45;7.73;;;4.03;;
74833;SDS011;63361;52.384;20.930;2023-06-24T02:19:11;8.35;;;4.28;;
74833;SDS011;63361;52.384;20.930;2023-06-24T02:21:37;8.30;;;4.60;;
74833;SDS011;63361;52.384;20.930;2023-06-24T02:24:03;7.28;;;4.20;;
74833;SDS011;63361;52.384;20.930;2023-06-24T02:26:29;8.77;;;4.65;;
74833;SDS011;63361;52.384;20.930;2023-06-24T02:28:54;11.17;;;4.60;;
74833;SDS011;63361;52.384;20.930;2023-06-24T02:31:20;8.23;;;4.30;;
74833;SDS011;63361;52.384;20.930;2023-06-24T02:33:45;9.00;;;3.90;;
74833;SDS011;63361;52.384;20.930;2023-06-24T02:36:11;9.30;;;5.07;;
74833;SDS011;63361;52.384;20.930;2023-06-24T02:38:36;7.90;;;4.27;;
74833;SDS011;63361;52.384;20.930;2023-06-24T02:41:02;8.37;;;4.40;;
74833;SDS011;63361;52.384;20.930;2023-06-24T02:43:29;7.80;;;4.15;;
74833;SDS011;63361;52.384;20.930;2023-06-24T02:45:54;8.70;;;4.70;;
74833;SDS011;63361;52.384;20.930;2023-06-24T02:48:20;8.37;;;4.30;;
74833;SDS011;63361;52.384;20.930;2023-06-24T02:50:45;9.73;;;5.10;;
74833;SDS011;63361;52.384;20.930;2023-06-24T02:53:11;9.23;;;4.77;;
74833;SDS011;63361;52.384;20.930;2023-06-24T02:55:37;7.20;;;4.20;;
74833;SDS011;63361;52.384;20.930;2023-06-24T02:58:03;7.43;;;4.50;;
74833;SDS011;63361;52.384;20.930;2023-06-24T03:00:32;8.13;;;4.77;;
74833;SDS011;63361;52.384;20.930;2023-06-24T03:02:58;6.32;;;4.03;;
74833;SDS011;63361;52.384;20.930;2023-06-24T03:05:24;8.47;;;4.63;;
74833;SDS011;63361;52.384;20.930;2023-06-24T03:07:50;8.20;;;4.13;;
74833;SDS011;63361;52.384;20.930;2023-06-24T03:10:16;8.55;;;4.43;;
74833;SDS011;63361;52.384;20.930;2023-06-24T03:12:41;8.63;;;4.33;;
74833;SDS011;63361;52.384;20.930;2023-06-24T03:15:06;9.20;;;4.53;;
74833;SDS011;63361;52.384;20.930;2023-06-24T03:17:34;9.82;;;4.53;;
74833;SDS011;63361;52.384;20.930;2023-06-24T03:19:59;11.57;;;4.73;;
74833;SDS011;63361;52.384;20.930;2023-06-24T03:22:24;9.50;;;4.67;;
74833;SDS011;63361;52.384;20.930;2023-06-24T03:24:49;10.67;;;4.37;;
74833;SDS011;63361;52.384;20.930;2023-06-24T03:27:16;9.65;;;4.68;;
74833;SDS011;63361;52.384;20.930;2023-06-24T03:29:41;8.23;;;4.30;;
74833;SDS011;63361;52.384;20.930;2023-06-24T03:32:06;8.57;;;4.43;;
74833;SDS011;63361;52.384;20.930;2023-06-24T03:34:32;8.10;;;4.50;;
74833;SDS011;63361;52.384;20.930;2023-06-24T03:36:57;9.30;;;4.53;;
74833;SDS011;63361;52.384;20.930;2023-06-24T03:39:22;8.50;;;4.60;;
74833;SDS011;63361;52.384;20.930;2023-06-24T03:41:48;7.73;;;4.33;;
74833;SDS011;63361;52.384;20.930;2023-06-24T03:44:13;7.23;;;4.53;;
74833;SDS011;63361;52.384;20.930;2023-06-24T03:46:38;7.78;;;4.38;;
74833;SDS011;63361;52.384;20.930;2023-06-24T03:49:04;8.07;;;4.40;;
74833;SDS011;63361;52.384;20.930;2023-06-24T03:51:29;7.67;;;4.67;;
74833;SDS011;63361;52.384;20.930;2023-06-24T03:53:54;10.03;;;4.47;;
74833;SDS011;63361;52.384;20.930;2023-06-24T03:56:20;6.80;;;4.03;;
74833;SDS011;63361;52.384;20.930;2023-06-24T03:58:45;7.40;;;4.00;;
74833;SDS011;63361;52.384;20.930;2023-06-24T04:01:10;8.67;;;4.10;;
74833;SDS011;63361;52.384;20.930;2023-06-24T04:03:35;7.28;;;4.00;;
74833;SDS011;63361;52.384;20.930;2023-06-24T04:06:01;8.43;;;4.10;;
74833;SDS011;63361;52.384;20.930;2023-06-24T04:08:29;8.17;;;4.43;;
74833;SDS011;63361;52.384;20.930;2023-06-24T04:10:55;9.30;;;4.55;;
74833;SDS011;63361;52.384;20.930;2023-06-24T04:13:20;8.03;;;4.20;;
74833;SDS011;63361;52.384;20.930;2023-06-24T04:15:46;8.70;;;4.82;;
74833;SDS011;63361;52.384;20.930;2023-06-24T04:18:11;7.57;;;4.13;;
74833;SDS011;63361;52.384;20.930;2023-06-24T04:20:36;12.23;;;4.80;;
74833;SDS011;63361;52.384;20.930;2023-06-24T04:23:03;7.60;;;4.40;;
74833;SDS011;63361;52.384;20.930;2023-06-24T04:25:28;8.10;;;4.10;;
74833;SDS011;63361;52.384;20.930;2023-06-24T04:27:53;10.90;;;4.30;;
74833;SDS011;63361;52.384;20.930;2023-06-24T04:30:18;7.80;;;4.37;;
74833;SDS011;63361;52.384;20.930;2023-06-24T04:32:43;8.73;;;3.80;;
74833;SDS011;63361;52.384;20.930;2023-06-24T04:35:09;8.43;;;3.93;;
74833;SDS011;63361;52.384;20.930;2023-06-24T04:37:34;8.40;;;4.33;;
74833;SDS011;63361;52.384;20.930;2023-06-24T04:39:59;8.17;;;4.43;;
74833;SDS011;63361;52.384;20.930;2023-06-24T04:42:24;8.00;;;4.27;;
74833;SDS011;63361;52.384;20.930;2023-06-24T04:44:49;7.77;;;3.77;;
74833;SDS011;63361;52.384;20.930;2023-06-24T04:47:16;7.70;;;3.85;;
74833;SDS011;63361;52.384;20.930;2023-06-24T04:49:42;9.10;;;4.03;;
74833;SDS011;63361;52.384;20.930;2023-06-24T04:52:07;6.47;;;3.60;;
74833;SDS011;63361;52.384;20.930;2023-06-24T04:54:32;7.57;;;3.53;;
74833;SDS011;63361;52.384;20.930;2023-06-24T04:56:58;6.50;;;3.60;;
74833;SDS011;63361;52.384;20.930;2023-06-24T04:59:23;7.53;;;3.80;;
74833;SDS011;63361;52.384;20.930;2023-06-24T05:01:48;6.13;;;3.40;;
74833;SDS011;63361;52.384;20.930;2023-06-24T05:04:13;7.67;;;3.57;;
74833;SDS011;63361;52.384;20.930;2023-06-24T05:06:39;6.33;;;3.67;;
74833;SDS011;63361;52.384;20.930;2023-06-24T05:09:04;6.23;;;3.33;;
74833;SDS011;63361;52.384;20.930;2023-06-24T05:11:29;8.17;;;3.30;;
74833;SDS011;63361;52.384;20.930;2023-06-24T05:13:55;6.57;;;3.10;;
74833;SDS011;63361;52.384;20.930;2023-06-24T05:16:20;7.45;;;3.20;;
74833;SDS011;63361;52.384;20.930;2023-06-24T05:18:46;6.00;;;3.07;;
74833;SDS011;63361;52.384;20.930;2023-06-24T05:21:11;6.77;;;2.80;;
74833;SDS011;63361;52.384;20.930;2023-06-24T05:23:36;6.17;;;2.80;;
74833;SDS011;63361;52.384;20.930;2023-06-24T05:26:01;6.40;;;3.13;;
74833;SDS011;63361;52.384;20.930;2023-06-24T05:28:26;8.97;;;3.30;;
74833;SDS011;63361;52.384;20.930;2023-06-24T05:30:52;5.77;;;3.07;;
74833;SDS011;63361;52.384;20.930;2023-06-24T05:33:17;6.23;;;3.23;;
74833;SDS011;63361;52.384;20.930;2023-06-24T05:35:42;5.80;;;3.03;;
74833;SDS011;63361;52.384;20.930;2023-06-24T05:38:08;7.63;;;3.17;;
74833;SDS011;63361;52.384;20.930;2023-06-24T05:40:33;6.93;;;3.27;;
74833;SDS011;63361;52.384;20.930;2023-06-24T05:42:58;7.25;;;3.10;;
74833;SDS011;63361;52.384;20.930;2023-06-24T05:45:23;6.47;;;3.30;;
74833;SDS011;63361;52.384;20.930;2023-06-24T05:47:49;6.37;;;3.00;;
74833;SDS011;63361;52.384;20.930;2023-06-24T05:50:14;5.67;;;3.40;;
74833;SDS011;63361;52.384;20.930;2023-06-24T05:52:39;6.67;;;3.23;;
74833;SDS011;63361;52.384;20.930;2023-06-24T05:55:04;7.47;;;3.47;;
74833;SDS011;63361;52.384;20.930;2023-06-24T05:57:29;6.63;;;3.33;;
74833;SDS011;63361;52.384;20.930;2023-06-24T05:59:55;6.00;;;3.47;;
74833;SDS011;63361;52.384;20.930;2023-06-24T06:02:20;8.03;;;3.37;;
74833;SDS011;63361;52.384;20.930;2023-06-24T06:04:46;6.30;;;3.30;;
74833;SDS011;63361;52.384;20.930;2023-06-24T06:07:11;8.85;;;3.55;;
74833;SDS011;63361;52.384;20.930;2023-06-24T06:09:37;5.50;;;2.90;;
74833;SDS011;63361;52.384;20.930;2023-06-24T06:12:02;6.43;;;3.30;;
74833;SDS011;63361;52.384;20.930;2023-06-24T06:14:28;5.43;;;3.43;;
74833;SDS011;63361;52.384;20.930;2023-06-24T06:16:53;7.23;;;3.10;;
74833;SDS011;63361;52.384;20.930;2023-06-24T06:19:18;7.10;;;3.20;;
74833;SDS011;63361;52.384;20.930;2023-06-24T06:21:43;5.37;;;2.87;;
74833;SDS011;63361;52.384;20.930;2023-06-24T06:24:08;7.63;;;3.40;;
74833;SDS011;63361;52.384;20.930;2023-06-24T06:26:34;5.17;;;2.80;;
74833;SDS011;63361;52.384;20.930;2023-06-24T06:28:59;6.40;;;3.07;;
74833;SDS011;63361;52.384;20.930;2023-06-24T06:31:24;5.87;;;3.27;;
74833;SDS011;63361;52.384;20.930;2023-06-24T06:33:50;5.63;;;2.80;;
74833;SDS011;63361;52.384;20.930;2023-06-24T06:36:16;7.18;;;2.60;;
74833;SDS011;63361;52.384;20.930;2023-06-24T06:38:41;5.03;;;2.77;;
74833;SDS011;63361;52.384;20.930;2023-06-24T06:41:07;5.77;;;3.07;;
74833;SDS011;63361;52.384;20.930;2023-06-24T06:43:33;4.60;;;2.83;;
74833;SDS011;63361;52.384;20.930;2023-06-24T06:45:58;6.63;;;3.13;;
74833;SDS011;63361;52.384;20.930;2023-06-24T06:48:23;7.63;;;3.40;;
74833;SDS011;63361;52.384;20.930;2023-06-24T06:50:48;9.33;;;2.97;;
74833;SDS011;63361;52.384;20.930;2023-06-24T06:53:14;7.23;;;2.93;;
74833;SDS011;63361;52.384;20.930;2023-06-24T06:55:39;5.97;;;2.70;;
74833;SDS011;63361;52.384;20.930;2023-06-24T06:58:05;6.63;;;2.87;;
74833;SDS011;63361;52.384;20.930;2023-06-24T07:00:30;4.70;;;2.50;;
74833;SDS011;63361;52.384;20.930;2023-06-24T07:02:55;5.47;;;3.20;;
74833;SDS011;63361;52.384;20.930;2023-06-24T07:05:20;7.20;;;2.70;;
74833;SDS011;63361;52.384;20.930;2023-06-24T07:07:46;7.63;;;3.00;;
74833;SDS011;63361;52.384;20.930;2023-06-24T07:10:11;5.27;;;2.70;;
74833;SDS011;63361;52.384;20.930;2023-06-24T07:12:37;5.10;;;2.95;;
74833;SDS011;63361;52.384;20.930;2023-06-24T07:15:02;5.40;;;2.97;;
74833;SDS011;63361;52.384;20.930;2023-06-24T07:17:27;4.60;;;2.60;;
74833;SDS011;63361;52.384;20.930;2023-06-24T07:19:52;5.73;;;3.33;;
74833;SDS011;63361;52.384;20.930;2023-06-24T07:22:18;4.97;;;2.40;;
74833;SDS011;63361;52.384;20.930;2023-06-24T07:24:43;5.47;;;2.50;;
74833;SDS011;63361;52.384;20.930;2023-06-24T07:27:08;5.10;;;2.43;;
74833;SDS011;63361;52.384;20.930;2023-06-24T07:29:33;5.57;;;2.50;;
74833;SDS011;63361;52.384;20.930;2023-06-24T07:31:58;5.47;;;2.70;;
74833;SDS011;63361;52.384;20.930;2023-06-24T07:34:24;6.30;;;2.77;;
74833;SDS011;63361;52.384;20.930;2023-06-24T07:36:49;6.93;;;2.70;;
74833;SDS011;63361;52.384;20.930;2023-06-24T07:39:15;6.18;;;3.00;;
74833;SDS011;63361;52.384;20.930;2023-06-24T07:41:41;7.80;;;2.93;;
74833;SDS011;63361;52.384;20.930;2023-06-24T07:44:07;6.25;;;2.78;;
74833;SDS011;63361;52.384;20.930;2023-06-24T07:46:32;5.53;;;2.80;;
74833;SDS011;63361;52.384;20.930;2023-06-24T07:48:57;6.80;;;2.67;;
74833;SDS011;63361;52.384;20.930;2023-06-24T07:51:23;5.07;;;2.60;;
74833;SDS011;63361;52.384;20.930;2023-06-24T07:53:48;5.60;;;2.77;;
74833;SDS011;63361;52.384;20.930;2023-06-24T07:56:13;8.53;;;2.43;;
74833;SDS011;63361;52.384;20.930;2023-06-24T07:58:38;5.70;;;2.60;;
74833;SDS011;63361;52.384;20.930;2023-06-24T08:01:04;4.63;;;2.47;;
74833;SDS011;63361;52.384;20.930;2023-06-24T08:03:29;4.50;;;2.47;;
74833;SDS011;63361;52.384;20.930;2023-06-24T08:05:54;5.20;;;2.73;;
74833;SDS011;63361;52.384;20.930;2023-06-24T08:08:21;5.23;;;2.67;;
74833;SDS011;63361;52.384;20.930;2023-06-24T08:10:46;6.10;;;2.70;;
74833;SDS011;63361;52.384;20.930;2023-06-24T08:13:11;6.23;;;2.40;;
74833;SDS011;63361;52.384;20.930;2023-06-24T08:15:37;5.27;;;2.60;;
74833;SDS011;63361;52.384;20.930;2023-06-24T08:18:02;6.97;;;2.53;;
74833;SDS011;63361;52.384;20.930;2023-06-24T08:20:27;5.40;;;2.67;;
74833;SDS011;63361;52.384;20.930;2023-06-24T08:22:52;6.53;;;2.60;;
74833;SDS011;63361;52.384;20.930;2023-06-24T08:25:17;5.97;;;2.90;;
74833;SDS011;63361;52.384;20.930;2023-06-24T08:27:43;4.70;;;2.50;;
74833;SDS011;63361;52.384;20.930;2023-06-24T08:30:11;6.72;;;2.80;;
74833;SDS011;63361;52.384;20.930;2023-06-24T08:32:36;4.70;;;2.67;;
74833;SDS011;63361;52.384;20.930;2023-06-24T08:35:02;6.77;;;2.70;;
74833;SDS011;63361;52.384;20.930;2023-06-24T08:37:27;6.33;;;3.00;;
74833;SDS011;63361;52.384;20.930;2023-06-24T08:39:52;5.67;;;2.80;;
74833;SDS011;63361;52.384;20.930;2023-06-24T08:42:18;6.67;;;2.90;;
74833;SDS011;63361;52.384;20.930;2023-06-24T08:44:43;5.77;;;2.70;;
74833;SDS011;63361;52.384;20.930;2023-06-24T08:47:08;6.83;;;2.83;;
74833;SDS011;63361;52.384;20.930;2023-06-24T08:49:34;6.47;;;2.95;;
74833;SDS011;63361;52.384;20.930;2023-06-24T08:52:13;5.68;;;2.90;;
74833;SDS011;63361;52.384;20.930;2023-06-24T08:54:39;6.33;;;2.90;;
74833;SDS011;63361;52.384;20.930;2023-06-24T08:57:05;8.10;;;3.15;;
74833;SDS011;63361;52.384;20.930;2023-06-24T08:59:36;10.13;;;3.30;;
74833;SDS011;63361;52.384;20.930;2023-06-24T09:02:02;5.15;;;2.75;;
74833;SDS011;63361;52.384;20.930;2023-06-24T09:04:27;5.23;;;2.80;;
74833;SDS011;63361;52.384;20.930;2023-06-24T09:06:52;6.13;;;3.30;;
74833;SDS011;63361;52.384;20.930;2023-06-24T09:09:21;6.77;;;3.20;;
74833;SDS011;63361;52.384;20.930;2023-06-24T09:11:53;5.15;;;2.97;;
74833;SDS011;63361;52.384;20.930;2023-06-24T09:14:18;5.72;;;3.00;;
74833;SDS011;63361;52.384;20.930;2023-06-24T09:16:50;5.93;;;3.10;;
74833;SDS011;63361;52.384;20.930;2023-06-24T09:19:19;5.90;;;3.10;;
74833;SDS011;63361;52.384;20.930;2023-06-24T09:21:44;6.70;;;3.25;;
74833;SDS011;63361;52.384;20.930;2023-06-24T09:24:11;7.00;;;2.95;;
74833;SDS011;63361;52.384;20.930;2023-06-24T09:26:36;5.93;;;2.87;;
74833;SDS011;63361;52.384;20.930;2023-06-24T09:29:01;5.70;;;2.83;;
74833;SDS011;63361;52.384;20.930;2023-06-24T09:31:26;6.97;;;2.93;;
74833;SDS011;63361;52.384;20.930;2023-06-24T09:33:56;6.03;;;3.03;;
74833;SDS011;63361;52.384;20.930;2023-06-24T09:36:21;5.53;;;2.97;;
74833;SDS011;63361;52.384;20.930;2023-06-24T09:38:46;8.63;;;2.80;;
74833;SDS011;63361;52.384;20.930;2023-06-24T09:41:13;5.40;;;2.97;;
74833;SDS011;63361;52.384;20.930;2023-06-24T09:43:39;6.20;;;3.10;;
74833;SDS011;63361;52.384;20.930;2023-06-24T09:46:07;6.50;;;3.10;;
74833;SDS011;63361;52.384;20.930;2023-06-24T09:48:33;5.60;;;2.97;;
74833;SDS011;63361;52.384;20.930;2023-06-24T09:51:02;6.45;;;2.78;;
74833;SDS011;63361;52.384;20.930;2023-06-24T09:53:30;7.35;;;2.95;;
74833;SDS011;63361;52.384;20.930;2023-06-24T09:55:55;6.60;;;3.17;;
74833;SDS011;63361;52.384;20.930;2023-06-24T09:58:21;5.80;;;2.88;;
74833;SDS011;63361;52.384;20.930;2023-06-24T10:00:46;5.80;;;3.00;;
74833;SDS011;63361;52.384;20.930;2023-06-24T10:03:12;6.95;;;3.30;;
74833;SDS011;63361;52.384;20.930;2023-06-24T10:05:37;5.17;;;2.90;;
74833;SDS011;63361;52.384;20.930;2023-06-24T10:08:04;8.70;;;3.60;;
74833;SDS011;63361;52.384;20.930;2023-06-24T10:10:30;6.75;;;3.40;;
74833;SDS011;63361;52.384;20.930;2023-06-24T10:12:55;6.40;;;2.90;;
74833;SDS011;63361;52.384;20.930;2023-06-24T10:15:21;6.27;;;3.03;;
74833;SDS011;63361;52.384;20.930;2023-06-24T10:17:46;9.40;;;3.27;;
74833;SDS011;63361;52.384;20.930;2023-06-24T10:20:12;6.60;;;3.10;;
74833;SDS011;63361;52.384;20.930;2023-06-24T10:22:37;5.82;;;3.15;;
74833;SDS011;63361;52.384;20.930;2023-06-24T10:25:05;8.00;;;3.47;;
74833;SDS011;63361;52.384;20.930;2023-06-24T10:27:30;6.63;;;3.30;;
74833;SDS011;63361;52.384;20.930;2023-06-24T10:30:03;5.30;;;2.97;;
74833;SDS011;63361;52.384;20.930;2023-06-24T10:32:29;5.90;;;3.30;;
74833;SDS011;63361;52.384;20.930;2023-06-24T10:35:04;5.75;;;3.25;;
74833;SDS011;63361;52.384;20.930;2023-06-24T10:37:32;6.23;;;3.57;;
74833;SDS011;63361;52.384;20.930;2023-06-24T10:39:58;6.57;;;3.42;;
74833;SDS011;63361;52.384;20.930;2023-06-24T10:44:56;6.72;;;3.40;;
74833;SDS011;63361;52.384;20.930;2023-06-24T10:47:22;6.97;;;3.83;;
74833;SDS011;63361;52.384;20.930;2023-06-24T10:49:48;9.15;;;3.90;;
74833;SDS011;63361;52.384;20.930;2023-06-24T10:52:13;6.83;;;3.40;;
74833;SDS011;63361;52.384;20.930;2023-06-24T10:54:38;5.97;;;3.70;;
74833;SDS011;63361;52.384;20.930;2023-06-24T10:57:04;6.03;;;3.92;;
74833;SDS011;63361;52.384;20.930;2023-06-24T11:02:04;6.13;;;3.78;;
74833;SDS011;63361;52.384;20.930;2023-06-24T11:04:29;8.57;;;3.80;;
74833;SDS011;63361;52.384;20.930;2023-06-24T11:06:58;10.80;;;3.37;;
74833;SDS011;63361;52.384;20.930;2023-06-24T11:09:23;9.57;;;3.70;;
74833;SDS011;63361;52.384;20.930;2023-06-24T11:11:48;10.47;;;3.57;;
74833;SDS011;63361;52.384;20.930;2023-06-24T11:14:15;7.60;;;3.40;;
74833;SDS011;63361;52.384;20.930;2023-06-24T11:16:40;6.90;;;3.28;;
74833;SDS011;63361;52.384;20.930;2023-06-24T11:19:05;5.17;;;3.10;;
74833;SDS011;63361;52.384;20.930;2023-06-24T11:21:31;7.03;;;3.73;;
74833;SDS011;63361;52.384;20.930;2023-06-24T11:24:02;5.88;;;3.45;;
74833;SDS011;63361;52.384;20.930;2023-06-24T11:26:28;7.80;;;3.50;;
74833;SDS011;63361;52.384;20.930;2023-06-24T11:28:53;6.80;;;3.73;;
74833;SDS011;63361;52.384;20.930;2023-06-24T11:31:18;6.10;;;3.47;;
74833;SDS011;63361;52.384;20.930;2023-06-24T11:33:47;7.73;;;3.80;;
74833;SDS011;63361;52.384;20.930;2023-06-24T11:36:13;7.03;;;3.35;;
74833;SDS011;63361;52.384;20.930;2023-06-24T11:38:41;8.48;;;3.63;;
74833;SDS011;63361;52.384;20.930;2023-06-24T11:41:06;7.30;;;3.97;;
74833;SDS011;63361;52.384;20.930;2023-06-24T11:43:32;8.13;;;3.37;;
74833;SDS011;63361;52.384;20.930;2023-06-24T11:45:58;6.07;;;3.80;;
74833;SDS011;63361;52.384;20.930;2023-06-24T11:48:27;10.77;;;3.60;;
74833;SDS011;63361;52.384;20.930;2023-06-24T11:50:55;6.35;;;3.60;;
74833;SDS011;63361;52.384;20.930;2023-06-24T11:53:30;7.53;;;3.90;;
74833;SDS011;63361;52.384;20.930;2023-06-24T11:55:56;7.90;;;3.78;;
74833;SDS011;63361;52.384;20.930;2023-06-24T11:58:21;7.60;;;3.70;;
74833;SDS011;63361;52.384;20.930;2023-06-24T12:00:48;8.10;;;3.80;;
74833;SDS011;63361;52.384;20.930;2023-06-24T12:03:13;8.63;;;3.60;;
74833;SDS011;63361;52.384;20.930;2023-06-24T12:05:39;8.52;;;3.67;;
74833;SDS011;63361;52.384;20.930;2023-06-24T12:08:10;8.25;;;3.80;;
74833;SDS011;63361;52.384;20.930;2023-06-24T12:10:36;6.13;;;3.40;;
74833;SDS011;63361;52.384;20.930;2023-06-24T12:13:02;7.07;;;3.50;;
74833;SDS011;63361;52.384;20.930;2023-06-24T12:15:28;7.43;;;3.80;;
74833;SDS011;63361;52.384;20.930;2023-06-24T12:17:53;7.53;;;3.07;;
74833;SDS011;63361;52.384;20.930;2023-06-24T12:20:19;6.32;;;3.58;;
74833;SDS011;63361;52.384;20.930;2023-06-24T12:22:47;5.77;;;3.43;;
74833;SDS011;63361;52.384;20.930;2023-06-24T12:25:13;9.43;;;3.38;;
74833;SDS011;63361;52.384;20.930;2023-06-24T12:27:39;7.37;;;3.20;;
74833;SDS011;63361;52.384;20.930;2023-06-24T12:30:05;6.50;;;3.50;;
74833;SDS011;63361;52.384;20.930;2023-06-24T12:32:30;11.02;;;4.20;;
74833;SDS011;63361;52.384;20.930;2023-06-24T12:34:56;7.47;;;4.00;;
74833;SDS011;63361;52.384;20.930;2023-06-24T12:37:21;8.37;;;3.67;;
74833;SDS011;63361;52.384;20.930;2023-06-24T12:39:46;6.93;;;3.20;;
74833;SDS011;63361;52.384;20.930;2023-06-24T12:42:12;7.13;;;3.20;;
74833;SDS011;63361;52.384;20.930;2023-06-24T12:44:37;6.90;;;3.20;;
74833;SDS011;63361;52.384;20.930;2023-06-24T12:47:03;5.70;;;3.00;;
74833;SDS011;63361;52.384;20.930;2023-06-24T12:49:28;6.50;;;3.30;;
74833;SDS011;63361;52.384;20.930;2023-06-24T12:51:53;6.93;;;3.00;;
74833;SDS011;63361;52.384;20.930;2023-06-24T12:54:18;5.90;;;3.27;;
74833;SDS011;63361;52.384;20.930;2023-06-24T12:56:43;7.43;;;3.07;;
74833;SDS011;63361;52.384;20.930;2023-06-24T12:59:09;6.83;;;3.40;;
74833;SDS011;63361;52.384;20.930;2023-06-24T13:01:34;7.43;;;3.47;;
74833;SDS011;63361;52.384;20.930;2023-06-24T13:03:59;6.37;;;3.10;;
74833;SDS011;63361;52.384;20.930;2023-06-24T13:06:24;5.93;;;2.87;;
74833;SDS011;63361;52.384;20.930;2023-06-24T13:08:50;10.63;;;3.00;;
74833;SDS011;63361;52.384;20.930;2023-06-24T13:11:15;5.87;;;2.93;;
74833;SDS011;63361;52.384;20.930;2023-06-24T13:13:40;6.63;;;3.00;;
74833;SDS011;63361;52.384;20.930;2023-06-24T13:16:05;7.90;;;2.90;;
74833;SDS011;63361;52.384;20.930;2023-06-24T13:18:30;6.40;;;3.00;;
74833;SDS011;63361;52.384;20.930;2023-06-24T13:20:56;5.53;;;2.97;;
74833;SDS011;63361;52.384;20.930;2023-06-24T13:23:21;6.13;;;3.20;;
74833;SDS011;63361;52.384;20.930;2023-06-24T13:25:47;7.72;;;2.75;;
74833;SDS011;63361;52.384;20.930;2023-06-24T13:28:12;5.30;;;2.73;;
74833;SDS011;63361;52.384;20.930;2023-06-24T13:30:37;7.83;;;2.87;;
74833;SDS011;63361;52.384;20.930;2023-06-24T13:33:02;6.33;;;2.80;;
74833;SDS011;63361;52.384;20.930;2023-06-24T13:35:28;5.43;;;2.87;;
74833;SDS011;63361;52.384;20.930;2023-06-24T13:37:53;5.10;;;2.70;;
74833;SDS011;63361;52.384;20.930;2023-06-24T13:40:18;8.13;;;3.50;;
74833;SDS011;63361;52.384;20.930;2023-06-24T13:42:44;6.47;;;3.35;;
74833;SDS011;63361;52.384;20.930;2023-06-24T13:45:09;6.00;;;3.10;;
74833;SDS011;63361;52.384;20.930;2023-06-24T13:47:35;6.50;;;3.67;;
74833;SDS011;63361;52.384;20.930;2023-06-24T13:50:00;6.13;;;3.15;;
74833;SDS011;63361;52.384;20.930;2023-06-24T13:52:26;6.30;;;3.37;;
74833;SDS011;63361;52.384;20.930;2023-06-24T13:54:52;6.63;;;3.27;;
74833;SDS011;63361;52.384;20.930;2023-06-24T13:57:17;6.55;;;3.05;;
74833;SDS011;63361;52.384;20.930;2023-06-24T13:59:42;6.10;;;2.70;;
74833;SDS011;63361;52.384;20.930;2023-06-24T14:02:07;6.17;;;2.77;;
74833;SDS011;63361;52.384;20.930;2023-06-24T14:04:33;6.88;;;2.80;;
74833;SDS011;63361;52.384;20.930;2023-06-24T14:06:59;5.80;;;3.00;;
74833;SDS011;63361;52.384;20.930;2023-06-24T14:09:24;6.70;;;3.10;;
74833;SDS011;63361;52.384;20.930;2023-06-24T14:11:49;6.27;;;3.00;;
74833;SDS011;63361;52.384;20.930;2023-06-24T14:14:14;7.13;;;3.20;;
74833;SDS011;63361;52.384;20.930;2023-06-24T14:16:39;6.87;;;3.20;;
74833;SDS011;63361;52.384;20.930;2023-06-24T14:19:05;8.13;;;3.30;;
74833;SDS011;63361;52.384;20.930;2023-06-24T14:21:30;7.27;;;3.30;;
74833;SDS011;63361;52.384;20.930;2023-06-24T14:23:56;6.23;;;3.40;;
74833;SDS011;63361;52.384;20.930;2023-06-24T14:26:22;5.30;;;2.88;;
74833;SDS011;63361;52.384;20.930;2023-06-24T14:28:47;5.53;;;3.30;;
74833;SDS011;63361;52.384;20.930;2023-06-24T14:31:12;9.23;;;3.37;;
74833;SDS011;63361;52.384;20.930;2023-06-24T14:33:37;6.73;;;3.10;;
74833;SDS011;63361;52.384;20.930;2023-06-24T14:36:02;6.83;;;3.50;;
74833;SDS011;63361;52.384;20.930;2023-06-24T14:38:28;7.60;;;3.30;;
74833;SDS011;63361;52.384;20.930;2023-06-24T14:40:53;6.40;;;3.23;;